sensor_id;sensor_type;location;lat;lon;timestamp;P1;durP1;ratioP1;P2;durP2;ratioP2
17741;SDS011;8993;51.822;-2.268;2022-12-29T00:00:39;28.33;;;2.14;;
17741;SDS011;8993;51.822;-2.268;2022-12-29T00:05:43;30.54;;;2.15;;
17741;SDS011;8993;51.822;-2.268;2022-12-29T00:10:49;25.06;;;2.03;;
17741;SDS011;8993;51.822;-2.268;2022-12-29T00:15:53;24.61;;;2.08;;
17741;SDS011;8993;51.822;-2.268;2022-12-29T00:20:58;25.38;;;1.98;;
17741;SDS011;8993;51.822;-2.268;2022-12-29T00:26:02;25.64;;;2.05;;
17741;SDS011;8993;51.822;-2.268;2022-12-29T00:31:07;25.28;;;1.96;;
17741;SDS011;8993;51.822;-2.268;2022-12-29T00:36:11;19.80;;;1.65;;
17741;SDS011;8993;51.822;-2.268;2022-12-29T00:41:15;26.23;;;2.17;;
17741;SDS011;8993;51.822;-2.268;2022-12-29T00:46:19;22.00;;;1.86;;
17741;SDS011;8993;51.822;-2.268;2022-12-29T00:51:23;23.98;;;1.85;;
17741;SDS011;8993;51.822;-2.268;2022-12-29T00:56:28;29.40;;;2.06;;
17741;SDS011;8993;51.822;-2.268;2022-12-29T01:01:33;26.50;;;1.76;;
17741;SDS011;8993;51.822;-2.268;2022-12-29T01:06:37;22.67;;;2.09;;
17741;SDS011;8993;51.822;-2.268;2022-12-29T01:11:41;26.83;;;2.46;;
17741;SDS011;8993;51.822;-2.268;2022-12-29T01:16:46;25.79;;;2.30;;
17741;SDS011;8993;51.822;-2.268;2022-12-29T01:21:50;22.21;;;2.13;;
17741;SDS011;8993;51.822;-2.268;2022-12-29T01:26:54;26.16;;;1.83;;
17741;SDS011;8993;51.822;-2.268;2022-12-29T01:31:58;22.73;;;1.92;;
17741;SDS011;8993;51.822;-2.268;2022-12-29T01:37:05;27.26;;;2.08;;
17741;SDS011;8993;51.822;-2.268;2022-12-29T01:42:12;24.74;;;2.11;;
17741;SDS011;8993;51.822;-2.268;2022-12-29T01:47:13;21.26;;;1.74;;
17741;SDS011;8993;51.822;-2.268;2022-12-29T01:52:17;24.37;;;2.06;;
17741;SDS011;8993;51.822;-2.268;2022-12-29T01:57:23;24.07;;;1.64;;
17741;SDS011;8993;51.822;-2.268;2022-12-29T02:02:26;21.20;;;1.87;;
17741;SDS011;8993;51.822;-2.268;2022-12-29T02:07:30;19.36;;;1.63;;
17741;SDS011;8993;51.822;-2.268;2022-12-29T02:12:35;24.57;;;2.06;;
17741;SDS011;8993;51.822;-2.268;2022-12-29T02:17:46;26.71;;;2.02;;
17741;SDS011;8993;51.822;-2.268;2022-12-29T02:22:47;17.04;;;1.37;;
17741;SDS011;8993;51.822;-2.268;2022-12-29T02:27:52;21.76;;;1.86;;
17741;SDS011;8993;51.822;-2.268;2022-12-29T02:32:54;19.67;;;1.89;;
17741;SDS011;8993;51.822;-2.268;2022-12-29T02:38:00;24.16;;;1.76;;
17741;SDS011;8993;51.822;-2.268;2022-12-29T02:43:03;25.41;;;1.81;;
17741;SDS011;8993;51.822;-2.268;2022-12-29T02:48:08;21.11;;;1.61;;
17741;SDS011;8993;51.822;-2.268;2022-12-29T02:53:11;14.41;;;1.51;;
17741;SDS011;8993;51.822;-2.268;2022-12-29T02:58:16;19.58;;;1.55;;
17741;SDS011;8993;51.822;-2.268;2022-12-29T03:03:20;18.32;;;1.38;;
17741;SDS011;8993;51.822;-2.268;2022-12-29T03:08:27;18.46;;;1.44;;
17741;SDS011;8993;51.822;-2.268;2022-12-29T03:13:31;21.46;;;1.42;;
17741;SDS011;8993;51.822;-2.268;2022-12-29T03:18:38;20.51;;;1.10;;
17741;SDS011;8993;51.822;-2.268;2022-12-29T03:23:38;21.60;;;1.48;;
17741;SDS011;8993;51.822;-2.268;2022-12-29T03:28:47;20.22;;;1.66;;
17741;SDS011;8993;51.822;-2.268;2022-12-29T03:33:50;26.86;;;1.65;;
17741;SDS011;8993;51.822;-2.268;2022-12-29T03:38:57;24.42;;;1.39;;
17741;SDS011;8993;51.822;-2.268;2022-12-29T03:44:00;24.53;;;1.65;;
17741;SDS011;8993;51.822;-2.268;2022-12-29T03:49:05;23.54;;;1.55;;
17741;SDS011;8993;51.822;-2.268;2022-12-29T03:54:09;21.90;;;1.44;;
17741;SDS011;8993;51.822;-2.268;2022-12-29T03:59:13;23.28;;;1.62;;
17741;SDS011;8993;51.822;-2.268;2022-12-29T04:04:17;20.62;;;1.41;;
17741;SDS011;8993;51.822;-2.268;2022-12-29T04:09:22;19.96;;;1.83;;
17741;SDS011;8993;51.822;-2.268;2022-12-29T04:14:26;19.63;;;1.16;;
17741;SDS011;8993;51.822;-2.268;2022-12-29T04:19:30;17.67;;;1.17;;
17741;SDS011;8993;51.822;-2.268;2022-12-29T04:24:34;13.26;;;1.05;;
17741;SDS011;8993;51.822;-2.268;2022-12-29T04:29:39;11.35;;;0.82;;
17741;SDS011;8993;51.822;-2.268;2022-12-29T04:34:43;6.72;;;0.57;;
17741;SDS011;8993;51.822;-2.268;2022-12-29T04:39:47;4.41;;;0.44;;
17741;SDS011;8993;51.822;-2.268;2022-12-29T04:44:53;2.12;;;0.21;;
17741;SDS011;8993;51.822;-2.268;2022-12-29T04:49:57;3.76;;;0.30;;
17741;SDS011;8993;51.822;-2.268;2022-12-29T04:55:01;3.43;;;0.19;;
17741;SDS011;8993;51.822;-2.268;2022-12-29T05:00:07;5.87;;;0.28;;
17741;SDS011;8993;51.822;-2.268;2022-12-29T05:05:10;3.83;;;0.34;;
17741;SDS011;8993;51.822;-2.268;2022-12-29T05:10:15;4.73;;;0.27;;
17741;SDS011;8993;51.822;-2.268;2022-12-29T05:15:19;3.51;;;0.30;;
17741;SDS011;8993;51.822;-2.268;2022-12-29T05:20:23;3.35;;;0.35;;
17741;SDS011;8993;51.822;-2.268;2022-12-29T05:25:28;3.47;;;0.27;;
17741;SDS011;8993;51.822;-2.268;2022-12-29T05:30:32;5.16;;;0.28;;
17741;SDS011;8993;51.822;-2.268;2022-12-29T05:35:38;3.92;;;0.37;;
17741;SDS011;8993;51.822;-2.268;2022-12-29T05:40:43;5.82;;;0.35;;
17741;SDS011;8993;51.822;-2.268;2022-12-29T05:45:48;3.91;;;0.36;;
17741;SDS011;8993;51.822;-2.268;2022-12-29T05:50:53;5.23;;;0.34;;
17741;SDS011;8993;51.822;-2.268;2022-12-29T05:55:57;4.09;;;0.35;;
17741;SDS011;8993;51.822;-2.268;2022-12-29T06:01:01;2.69;;;0.27;;
17741;SDS011;8993;51.822;-2.268;2022-12-29T06:06:05;3.59;;;0.28;;
17741;SDS011;8993;51.822;-2.268;2022-12-29T06:11:10;3.87;;;0.34;;
17741;SDS011;8993;51.822;-2.268;2022-12-29T06:16:14;6.42;;;0.48;;
17741;SDS011;8993;51.822;-2.268;2022-12-29T06:21:18;3.57;;;0.34;;
17741;SDS011;8993;51.822;-2.268;2022-12-29T06:26:22;4.98;;;0.49;;
17741;SDS011;8993;51.822;-2.268;2022-12-29T06:31:26;4.75;;;0.47;;
17741;SDS011;8993;51.822;-2.268;2022-12-29T06:36:31;8.23;;;0.62;;
17741;SDS011;8993;51.822;-2.268;2022-12-29T06:41:35;7.40;;;0.52;;
17741;SDS011;8993;51.822;-2.268;2022-12-29T06:46:39;6.85;;;0.64;;
17741;SDS011;8993;51.822;-2.268;2022-12-29T06:51:43;8.16;;;0.54;;
17741;SDS011;8993;51.822;-2.268;2022-12-29T06:56:47;11.21;;;0.85;;
17741;SDS011;8993;51.822;-2.268;2022-12-29T07:01:53;9.27;;;0.72;;
17741;SDS011;8993;51.822;-2.268;2022-12-29T07:06:57;9.96;;;0.92;;
17741;SDS011;8993;51.822;-2.268;2022-12-29T07:12:03;13.98;;;1.24;;
17741;SDS011;8993;51.822;-2.268;2022-12-29T07:17:07;13.85;;;1.15;;
17741;SDS011;8993;51.822;-2.268;2022-12-29T07:22:11;13.98;;;1.37;;
17741;SDS011;8993;51.822;-2.268;2022-12-29T07:27:15;14.31;;;1.08;;
17741;SDS011;8993;51.822;-2.268;2022-12-29T07:32:19;12.43;;;1.14;;
17741;SDS011;8993;51.822;-2.268;2022-12-29T07:37:24;13.81;;;1.38;;
17741;SDS011;8993;51.822;-2.268;2022-12-29T07:42:28;15.31;;;1.32;;
17741;SDS011;8993;51.822;-2.268;2022-12-29T07:47:39;16.92;;;1.41;;
17741;SDS011;8993;51.822;-2.268;2022-12-29T07:52:33;15.34;;;1.50;;
17741;SDS011;8993;51.822;-2.268;2022-12-29T07:57:37;13.19;;;1.53;;
17741;SDS011;8993;51.822;-2.268;2022-12-29T08:02:41;12.28;;;1.03;;
17741;SDS011;8993;51.822;-2.268;2022-12-29T08:07:46;11.89;;;0.86;;
17741;SDS011;8993;51.822;-2.268;2022-12-29T08:12:50;9.41;;;0.72;;
17741;SDS011;8993;51.822;-2.268;2022-12-29T08:17:54;6.97;;;0.67;;
17741;SDS011;8993;51.822;-2.268;2022-12-29T08:22:58;8.09;;;0.62;;
17741;SDS011;8993;51.822;-2.268;2022-12-29T08:28:02;4.01;;;0.48;;
17741;SDS011;8993;51.822;-2.268;2022-12-29T08:33:06;7.18;;;0.47;;
17741;SDS011;8993;51.822;-2.268;2022-12-29T08:38:12;7.00;;;0.89;;
17741;SDS011;8993;51.822;-2.268;2022-12-29T08:43:16;10.48;;;1.26;;
17741;SDS011;8993;51.822;-2.268;2022-12-29T08:48:21;7.79;;;0.91;;
17741;SDS011;8993;51.822;-2.268;2022-12-29T08:53:25;9.39;;;1.04;;
17741;SDS011;8993;51.822;-2.268;2022-12-29T08:58:29;8.31;;;0.74;;
17741;SDS011;8993;51.822;-2.268;2022-12-29T09:03:33;7.77;;;0.96;;
17741;SDS011;8993;51.822;-2.268;2022-12-29T09:08:37;11.29;;;1.07;;
17741;SDS011;8993;51.822;-2.268;2022-12-29T09:13:41;6.76;;;0.63;;
17741;SDS011;8993;51.822;-2.268;2022-12-29T09:18:46;7.01;;;0.70;;
17741;SDS011;8993;51.822;-2.268;2022-12-29T09:23:50;6.96;;;0.84;;
17741;SDS011;8993;51.822;-2.268;2022-12-29T09:28:54;9.64;;;1.08;;
17741;SDS011;8993;51.822;-2.268;2022-12-29T09:33:58;11.34;;;1.22;;
17741;SDS011;8993;51.822;-2.268;2022-12-29T09:39:03;8.75;;;0.94;;
17741;SDS011;8993;51.822;-2.268;2022-12-29T09:44:11;11.40;;;0.80;;
17741;SDS011;8993;51.822;-2.268;2022-12-29T09:49:16;14.12;;;1.10;;
17741;SDS011;8993;51.822;-2.268;2022-12-29T09:54:23;16.59;;;0.90;;
17741;SDS011;8993;51.822;-2.268;2022-12-29T09:59:22;13.75;;;1.03;;
17741;SDS011;8993;51.822;-2.268;2022-12-29T10:04:25;18.68;;;1.08;;
17741;SDS011;8993;51.822;-2.268;2022-12-29T10:09:30;17.79;;;1.59;;
17741;SDS011;8993;51.822;-2.268;2022-12-29T10:14:39;21.64;;;1.63;;
17741;SDS011;8993;51.822;-2.268;2022-12-29T10:19:40;17.90;;;1.49;;
17741;SDS011;8993;51.822;-2.268;2022-12-29T10:24:42;20.20;;;1.43;;
17741;SDS011;8993;51.822;-2.268;2022-12-29T10:29:48;21.58;;;1.90;;
17741;SDS011;8993;51.822;-2.268;2022-12-29T10:34:51;20.52;;;1.63;;
17741;SDS011;8993;51.822;-2.268;2022-12-29T10:39:55;25.60;;;2.02;;
17741;SDS011;8993;51.822;-2.268;2022-12-29T10:44:59;19.61;;;1.31;;
17741;SDS011;8993;51.822;-2.268;2022-12-29T10:50:04;19.01;;;1.71;;
17741;SDS011;8993;51.822;-2.268;2022-12-29T10:55:09;22.64;;;1.80;;
17741;SDS011;8993;51.822;-2.268;2022-12-29T11:00:15;23.03;;;1.84;;
17741;SDS011;8993;51.822;-2.268;2022-12-29T11:05:22;29.95;;;1.89;;
17741;SDS011;8993;51.822;-2.268;2022-12-29T11:10:29;28.83;;;1.85;;
17741;SDS011;8993;51.822;-2.268;2022-12-29T11:15:35;25.42;;;1.57;;
17741;SDS011;8993;51.822;-2.268;2022-12-29T11:20:33;25.90;;;1.87;;
17741;SDS011;8993;51.822;-2.268;2022-12-29T11:25:37;27.41;;;2.24;;
17741;SDS011;8993;51.822;-2.268;2022-12-29T11:30:41;22.02;;;1.63;;
17741;SDS011;8993;51.822;-2.268;2022-12-29T11:35:45;18.56;;;1.31;;
17741;SDS011;8993;51.822;-2.268;2022-12-29T11:40:50;18.61;;;1.45;;
17741;SDS011;8993;51.822;-2.268;2022-12-29T11:45:54;8.90;;;0.83;;
17741;SDS011;8993;51.822;-2.268;2022-12-29T11:50:58;13.26;;;0.96;;
17741;SDS011;8993;51.822;-2.268;2022-12-29T11:56:04;17.60;;;1.07;;
17741;SDS011;8993;51.822;-2.268;2022-12-29T12:01:11;16.05;;;1.24;;
17741;SDS011;8993;51.822;-2.268;2022-12-29T12:06:13;12.45;;;0.85;;
17741;SDS011;8993;51.822;-2.268;2022-12-29T12:11:17;15.93;;;1.20;;
17741;SDS011;8993;51.822;-2.268;2022-12-29T12:16:22;11.57;;;0.76;;
17741;SDS011;8993;51.822;-2.268;2022-12-29T12:21:27;9.01;;;0.74;;
17741;SDS011;8993;51.822;-2.268;2022-12-29T12:26:31;8.72;;;0.64;;
17741;SDS011;8993;51.822;-2.268;2022-12-29T12:31:38;9.28;;;0.78;;
17741;SDS011;8993;51.822;-2.268;2022-12-29T12:36:45;10.17;;;1.05;;
17741;SDS011;8993;51.822;-2.268;2022-12-29T12:41:45;11.51;;;0.82;;
17741;SDS011;8993;51.822;-2.268;2022-12-29T12:46:52;8.77;;;0.87;;
17741;SDS011;8993;51.822;-2.268;2022-12-29T12:51:52;14.64;;;0.84;;
17741;SDS011;8993;51.822;-2.268;2022-12-29T12:56:58;13.62;;;0.74;;
17741;SDS011;8993;51.822;-2.268;2022-12-29T13:02:01;9.19;;;1.01;;
17741;SDS011;8993;51.822;-2.268;2022-12-29T13:07:06;12.92;;;0.80;;
17741;SDS011;8993;51.822;-2.268;2022-12-29T13:12:11;13.34;;;1.50;;
17741;SDS011;8993;51.822;-2.268;2022-12-29T13:17:13;10.91;;;0.76;;
17741;SDS011;8993;51.822;-2.268;2022-12-29T13:22:17;15.44;;;1.22;;
17741;SDS011;8993;51.822;-2.268;2022-12-29T13:27:22;17.62;;;1.26;;
17741;SDS011;8993;51.822;-2.268;2022-12-29T13:58:44;10.14;;;1.25;;
17741;SDS011;8993;51.822;-2.268;2022-12-29T14:03:43;7.46;;;1.10;;
17741;SDS011;8993;51.822;-2.268;2022-12-29T14:08:41;6.98;;;1.05;;
17741;SDS011;8993;51.822;-2.268;2022-12-29T14:17:11;8.11;;;0.93;;
17741;SDS011;8993;51.822;-2.268;2022-12-29T14:22:07;9.53;;;1.20;;
17741;SDS011;8993;51.822;-2.268;2022-12-29T14:27:07;11.87;;;1.34;;
17741;SDS011;8993;51.822;-2.268;2022-12-29T14:32:20;9.01;;;1.09;;
17741;SDS011;8993;51.822;-2.268;2022-12-29T14:37:22;11.54;;;1.18;;
17741;SDS011;8993;51.822;-2.268;2022-12-29T14:42:15;12.11;;;1.33;;
17741;SDS011;8993;51.822;-2.268;2022-12-29T14:47:20;11.50;;;1.17;;
17741;SDS011;8993;51.822;-2.268;2022-12-29T14:52:25;13.00;;;1.21;;
17741;SDS011;8993;51.822;-2.268;2022-12-29T14:57:32;16.61;;;1.41;;
17741;SDS011;8993;51.822;-2.268;2022-12-29T15:02:37;24.61;;;2.29;;
17741;SDS011;8993;51.822;-2.268;2022-12-29T15:07:39;18.90;;;2.01;;
17741;SDS011;8993;51.822;-2.268;2022-12-29T15:12:45;18.94;;;2.04;;
17741;SDS011;8993;51.822;-2.268;2022-12-29T15:17:47;19.11;;;1.88;;
17741;SDS011;8993;51.822;-2.268;2022-12-29T15:22:53;20.00;;;1.75;;
17741;SDS011;8993;51.822;-2.268;2022-12-29T15:27:57;18.41;;;1.81;;
17741;SDS011;8993;51.822;-2.268;2022-12-29T15:33:01;12.77;;;1.35;;
17741;SDS011;8993;51.822;-2.268;2022-12-29T15:38:12;14.41;;;1.35;;
17741;SDS011;8993;51.822;-2.268;2022-12-29T15:43:13;11.92;;;1.28;;
17741;SDS011;8993;51.822;-2.268;2022-12-29T15:48:16;10.82;;;1.25;;
17741;SDS011;8993;51.822;-2.268;2022-12-29T15:53:19;11.41;;;1.17;;
17741;SDS011;8993;51.822;-2.268;2022-12-29T15:58:24;11.65;;;1.20;;
17741;SDS011;8993;51.822;-2.268;2022-12-29T16:03:29;9.34;;;1.06;;
17741;SDS011;8993;51.822;-2.268;2022-12-29T16:08:33;11.78;;;1.43;;
17741;SDS011;8993;51.822;-2.268;2022-12-29T16:13:38;13.62;;;1.33;;
17741;SDS011;8993;51.822;-2.268;2022-12-29T16:18:42;14.18;;;1.47;;
17741;SDS011;8993;51.822;-2.268;2022-12-29T16:23:46;13.65;;;1.32;;
17741;SDS011;8993;51.822;-2.268;2022-12-29T16:28:51;13.90;;;1.46;;
17741;SDS011;8993;51.822;-2.268;2022-12-29T16:33:55;13.63;;;1.40;;
17741;SDS011;8993;51.822;-2.268;2022-12-29T16:39:21;12.64;;;1.40;;
17741;SDS011;8993;51.822;-2.268;2022-12-29T16:44:11;12.66;;;1.38;;
17741;SDS011;8993;51.822;-2.268;2022-12-29T16:49:10;14.12;;;1.52;;
17741;SDS011;8993;51.822;-2.268;2022-12-29T16:54:17;12.33;;;1.26;;
17741;SDS011;8993;51.822;-2.268;2022-12-29T16:59:21;13.64;;;1.59;;
17741;SDS011;8993;51.822;-2.268;2022-12-29T17:04:21;14.57;;;1.56;;
17741;SDS011;8993;51.822;-2.268;2022-12-29T17:09:26;10.46;;;1.41;;
17741;SDS011;8993;51.822;-2.268;2022-12-29T17:14:36;13.80;;;1.54;;
17741;SDS011;8993;51.822;-2.268;2022-12-29T17:19:36;13.03;;;1.55;;
17741;SDS011;8993;51.822;-2.268;2022-12-29T17:24:39;14.24;;;1.82;;
17741;SDS011;8993;51.822;-2.268;2022-12-29T17:29:44;13.64;;;1.70;;
17741;SDS011;8993;51.822;-2.268;2022-12-29T17:34:48;15.70;;;1.98;;
17741;SDS011;8993;51.822;-2.268;2022-12-29T17:39:53;13.53;;;1.84;;
17741;SDS011;8993;51.822;-2.268;2022-12-29T17:44:57;16.66;;;1.94;;
17741;SDS011;8993;51.822;-2.268;2022-12-29T17:50:01;15.27;;;1.84;;
17741;SDS011;8993;51.822;-2.268;2022-12-29T17:55:06;19.35;;;1.87;;
17741;SDS011;8993;51.822;-2.268;2022-12-29T18:00:13;16.31;;;1.93;;
17741;SDS011;8993;51.822;-2.268;2022-12-29T18:05:15;20.23;;;2.15;;
17741;SDS011;8993;51.822;-2.268;2022-12-29T18:10:19;26.12;;;2.62;;
17741;SDS011;8993;51.822;-2.268;2022-12-29T18:15:24;21.42;;;2.54;;
17741;SDS011;8993;51.822;-2.268;2022-12-29T18:20:27;21.22;;;2.00;;
17741;SDS011;8993;51.822;-2.268;2022-12-29T18:25:35;21.69;;;1.95;;
17741;SDS011;8993;51.822;-2.268;2022-12-29T18:30:36;20.03;;;2.03;;
17741;SDS011;8993;51.822;-2.268;2022-12-29T18:35:41;24.19;;;2.36;;
17741;SDS011;8993;51.822;-2.268;2022-12-29T18:40:45;20.12;;;2.09;;
17741;SDS011;8993;51.822;-2.268;2022-12-29T18:45:49;18.46;;;1.88;;
17741;SDS011;8993;51.822;-2.268;2022-12-29T18:50:53;15.59;;;1.69;;
17741;SDS011;8993;51.822;-2.268;2022-12-29T18:55:58;17.08;;;2.24;;
17741;SDS011;8993;51.822;-2.268;2022-12-29T19:01:02;25.40;;;4.26;;
17741;SDS011;8993;51.822;-2.268;2022-12-29T19:06:06;23.72;;;3.13;;
17741;SDS011;8993;51.822;-2.268;2022-12-29T19:11:11;16.46;;;2.67;;
17741;SDS011;8993;51.822;-2.268;2022-12-29T19:16:16;19.34;;;2.15;;
17741;SDS011;8993;51.822;-2.268;2022-12-29T19:21:20;20.51;;;2.22;;
17741;SDS011;8993;51.822;-2.268;2022-12-29T19:26:26;24.44;;;2.63;;
17741;SDS011;8993;51.822;-2.268;2022-12-29T19:31:28;19.37;;;2.11;;
17741;SDS011;8993;51.822;-2.268;2022-12-29T19:36:32;19.76;;;2.16;;
17741;SDS011;8993;51.822;-2.268;2022-12-29T19:41:37;22.59;;;2.37;;
17741;SDS011;8993;51.822;-2.268;2022-12-29T19:46:41;21.19;;;2.71;;
17741;SDS011;8993;51.822;-2.268;2022-12-29T19:51:45;21.31;;;2.49;;
17741;SDS011;8993;51.822;-2.268;2022-12-29T19:56:49;18.36;;;2.27;;
17741;SDS011;8993;51.822;-2.268;2022-12-29T20:01:54;22.10;;;2.22;;
17741;SDS011;8993;51.822;-2.268;2022-12-29T20:06:58;19.39;;;2.59;;
17741;SDS011;8993;51.822;-2.268;2022-12-29T20:12:03;19.23;;;2.02;;
17741;SDS011;8993;51.822;-2.268;2022-12-29T20:17:08;21.26;;;2.42;;
17741;SDS011;8993;51.822;-2.268;2022-12-29T20:22:11;17.67;;;2.03;;
17741;SDS011;8993;51.822;-2.268;2022-12-29T20:27:16;18.08;;;1.98;;
17741;SDS011;8993;51.822;-2.268;2022-12-29T20:32:22;16.57;;;1.87;;
17741;SDS011;8993;51.822;-2.268;2022-12-29T20:37:26;17.00;;;2.08;;
17741;SDS011;8993;51.822;-2.268;2022-12-29T20:42:30;16.55;;;2.15;;
17741;SDS011;8993;51.822;-2.268;2022-12-29T20:47:34;18.68;;;1.89;;
17741;SDS011;8993;51.822;-2.268;2022-12-29T20:52:38;17.33;;;1.98;;
17741;SDS011;8993;51.822;-2.268;2022-12-29T20:57:42;17.52;;;2.05;;
17741;SDS011;8993;51.822;-2.268;2022-12-29T21:02:47;16.61;;;2.03;;
17741;SDS011;8993;51.822;-2.268;2022-12-29T21:07:51;19.11;;;2.10;;
17741;SDS011;8993;51.822;-2.268;2022-12-29T21:12:56;18.10;;;1.89;;
17741;SDS011;8993;51.822;-2.268;2022-12-29T21:18:00;21.52;;;2.41;;
17741;SDS011;8993;51.822;-2.268;2022-12-29T21:23:06;20.47;;;2.23;;
17741;SDS011;8993;51.822;-2.268;2022-12-29T21:28:13;19.89;;;2.50;;
17741;SDS011;8993;51.822;-2.268;2022-12-29T21:33:17;20.47;;;2.34;;
17741;SDS011;8993;51.822;-2.268;2022-12-29T21:38:21;21.32;;;2.43;;
17741;SDS011;8993;51.822;-2.268;2022-12-29T21:43:25;15.45;;;1.80;;
17741;SDS011;8993;51.822;-2.268;2022-12-29T21:48:30;18.26;;;2.06;;
17741;SDS011;8993;51.822;-2.268;2022-12-29T21:53:34;18.71;;;2.27;;
17741;SDS011;8993;51.822;-2.268;2022-12-29T21:58:39;16.98;;;2.26;;
17741;SDS011;8993;51.822;-2.268;2022-12-29T22:03:43;20.80;;;2.23;;
17741;SDS011;8993;51.822;-2.268;2022-12-29T22:08:47;21.43;;;3.02;;
17741;SDS011;8993;51.822;-2.268;2022-12-29T22:13:51;17.38;;;2.20;;
17741;SDS011;8993;51.822;-2.268;2022-12-29T22:18:56;17.72;;;1.84;;
17741;SDS011;8993;51.822;-2.268;2022-12-29T22:24:00;19.76;;;2.29;;
17741;SDS011;8993;51.822;-2.268;2022-12-29T22:29:05;19.29;;;2.18;;
17741;SDS011;8993;51.822;-2.268;2022-12-29T22:34:11;21.17;;;2.19;;
17741;SDS011;8993;51.822;-2.268;2022-12-29T22:39:15;19.86;;;2.11;;
17741;SDS011;8993;51.822;-2.268;2022-12-29T22:44:23;21.70;;;2.31;;
17741;SDS011;8993;51.822;-2.268;2022-12-29T22:49:26;22.40;;;2.17;;
17741;SDS011;8993;51.822;-2.268;2022-12-29T22:54:30;21.00;;;2.19;;
17741;SDS011;8993;51.822;-2.268;2022-12-29T22:59:35;21.02;;;2.04;;
17741;SDS011;8993;51.822;-2.268;2022-12-29T23:04:39;23.06;;;2.10;;
17741;SDS011;8993;51.822;-2.268;2022-12-29T23:09:43;17.23;;;1.98;;
17741;SDS011;8993;51.822;-2.268;2022-12-29T23:14:48;19.51;;;1.93;;
17741;SDS011;8993;51.822;-2.268;2022-12-29T23:19:52;16.74;;;1.94;;
17741;SDS011;8993;51.822;-2.268;2022-12-29T23:24:57;21.71;;;1.95;;
17741;SDS011;8993;51.822;-2.268;2022-12-29T23:30:01;18.67;;;1.82;;
17741;SDS011;8993;51.822;-2.268;2022-12-29T23:35:05;18.79;;;1.95;;
17741;SDS011;8993;51.822;-2.268;2022-12-29T23:40:10;19.39;;;1.78;;
17741;SDS011;8993;51.822;-2.268;2022-12-29T23:45:13;13.04;;;1.46;;
17741;SDS011;8993;51.822;-2.268;2022-12-29T23:50:18;16.36;;;1.68;;
17741;SDS011;8993;51.822;-2.268;2022-12-29T23:55:23;16.22;;;1.41;;
